createdAt,value
2023-04-16T00:02:28.749Z,82.40
2023-04-16T00:05:31.740Z,82.48
2023-04-16T00:08:35.765Z,82.74
2023-04-16T00:11:38.469Z,82.87
2023-04-16T00:14:40.894Z,82.67
2023-04-16T00:17:43.536Z,83.04
2023-04-16T00:20:47.534Z,82.94
2023-04-16T00:23:50.572Z,83.18
2023-04-16T00:26:52.915Z,83.53
2023-04-16T00:29:55.627Z,82.93
2023-04-16T00:32:58.889Z,83.46
2023-04-16T00:36:01.735Z,83.06
2023-04-16T00:39:04.313Z,82.75
2023-04-16T00:42:07.032Z,82.93
2023-04-16T00:45:10.349Z,82.79
2023-04-16T00:48:13.001Z,82.84
2023-04-16T00:51:15.684Z,82.82
2023-04-16T00:54:19.523Z,82.93
2023-04-16T00:57:23.965Z,83.29
2023-04-16T01:00:27.034Z,83.52
2023-04-16T01:03:39.392Z,83.40
2023-04-16T01:06:42.182Z,83.65
2023-04-16T01:09:44.499Z,83.76
2023-04-16T01:12:48.129Z,83.29
2023-04-16T01:15:50.654Z,83.22
2023-04-16T01:18:53.330Z,83.28
2023-04-16T01:21:55.740Z,83.43
2023-04-16T01:24:58.368Z,83.34
2023-04-16T01:28:00.677Z,83.59
2023-04-16T01:31:03.349Z,83.44
2023-04-16T01:34:07.682Z,83.52
2023-04-16T01:37:12.939Z,83.49
2023-04-16T01:40:15.530Z,83.69
2023-04-16T01:43:18.154Z,83.51
2023-04-16T01:46:33.382Z,83.88
2023-04-16T01:49:37.057Z,83.42
2023-04-16T01:52:39.491Z,83.94
2023-04-16T01:55:42.073Z,83.71
2023-04-16T01:58:46.098Z,83.72
2023-04-16T02:01:48.918Z,83.75
2023-04-16T02:04:52.019Z,83.28
2023-04-16T02:07:54.503Z,83.00
2023-04-16T02:11:00.419Z,83.77
2023-04-16T02:14:02.785Z,83.63
2023-04-16T02:17:05.438Z,83.18
2023-04-16T02:20:10.265Z,83.07
2023-04-16T02:23:17.093Z,83.40
2023-04-16T02:26:19.788Z,83.58
2023-04-16T02:29:23.090Z,83.60
2023-04-16T02:32:26.686Z,83.61
2023-04-16T02:35:29.465Z,83.34
2023-04-16T02:38:31.923Z,83.41
2023-04-16T02:41:34.647Z,83.22
2023-04-16T02:44:37.021Z,83.33
2023-04-16T02:47:40.026Z,83.47
2023-04-16T02:50:42.357Z,83.83
2023-04-16T02:53:46.146Z,83.35
2023-04-16T02:56:48.742Z,83.58
2023-04-16T02:59:51.401Z,83.13
2023-04-16T03:02:53.844Z,83.19
2023-04-16T03:05:56.650Z,83.08
2023-04-16T03:08:59.042Z,83.08
2023-04-16T03:12:02.517Z,83.02
2023-04-16T03:15:05.402Z,83.47
2023-04-16T03:18:08.044Z,83.64
2023-04-16T03:21:10.489Z,83.23
2023-04-16T03:24:13.621Z,83.19
2023-04-16T03:27:16.310Z,83.30
2023-04-16T03:30:20.134Z,83.42
2023-04-16T03:33:22.850Z,83.09
2023-04-16T03:36:27.197Z,83.19
2023-04-16T03:39:31.674Z,83.56
2023-04-16T03:42:34.393Z,83.63
2023-04-16T03:45:44.265Z,83.30
2023-04-16T03:48:47.666Z,83.07
2023-04-16T03:51:51.259Z,82.84
2023-04-16T03:54:56.056Z,82.97
2023-04-16T03:58:02.975Z,82.90
2023-04-16T04:01:06.425Z,82.89
2023-04-16T04:04:09.786Z,83.24
2023-04-16T04:07:12.654Z,83.56
2023-04-16T04:10:16.274Z,82.99
2023-04-16T04:13:19.248Z,82.67
2023-04-16T04:16:21.982Z,82.83
2023-04-16T04:19:24.377Z,82.81
2023-04-16T04:22:26.997Z,83.04
2023-04-16T04:25:29.513Z,82.98
2023-04-16T04:28:35.560Z,83.32
2023-04-16T04:31:38.271Z,83.24
2023-04-16T04:34:41.117Z,83.33
2023-04-16T04:37:43.887Z,83.51
2023-04-16T04:40:47.058Z,83.46
2023-04-16T04:43:50.409Z,83.41
2023-04-16T04:46:54.733Z,83.49
2023-04-16T04:49:57.210Z,83.56
2023-04-16T04:53:00.536Z,83.36
2023-04-16T04:56:12.254Z,83.17
2023-04-16T04:59:15.788Z,83.08
2023-04-16T05:02:18.253Z,83.09
2023-04-16T05:05:21.162Z,82.98
2023-04-16T05:08:23.450Z,83.46
2023-04-16T05:11:26.144Z,82.79
2023-04-16T05:14:28.517Z,82.51
2023-04-16T05:17:31.484Z,82.85
2023-04-16T05:20:33.845Z,82.34
2023-04-16T05:23:36.898Z,82.39
2023-04-16T05:26:39.196Z,82.53
2023-04-16T05:29:41.796Z,82.70
2023-04-16T05:32:44.261Z,82.80
2023-04-16T05:35:46.998Z,82.91
2023-04-16T05:38:49.314Z,82.83
2023-04-16T05:41:53.944Z,82.95
2023-04-16T05:44:56.351Z,82.59
2023-04-16T05:47:59.534Z,82.52
2023-04-16T05:51:02.764Z,82.33
2023-04-16T05:54:05.416Z,82.25
2023-04-16T05:57:07.726Z,82.27
2023-04-16T06:00:10.598Z,82.40
2023-04-16T06:03:14.616Z,82.21
2023-04-16T06:06:17.394Z,82.11
2023-04-16T06:09:19.726Z,81.97
2023-04-16T06:12:22.457Z,81.91
2023-04-16T06:15:24.749Z,81.92
2023-04-16T06:18:27.413Z,81.83
2023-04-16T06:21:29.923Z,81.76
2023-04-16T06:24:32.521Z,81.65
2023-04-16T06:27:34.858Z,81.64
2023-04-16T06:30:37.478Z,81.67
2023-04-16T06:33:39.851Z,81.62
2023-04-16T06:36:42.459Z,81.49
2023-04-16T06:39:44.834Z,81.18
2023-04-16T06:42:47.493Z,80.74
2023-04-16T06:45:50.104Z,80.41
2023-04-16T06:48:52.750Z,80.31
2023-04-16T06:51:55.159Z,79.30
2023-04-16T06:54:58.054Z,78.46
2023-04-16T06:58:00.404Z,77.84
2023-04-16T07:01:03.175Z,77.13
2023-04-16T07:04:05.744Z,77.26
2023-04-16T07:07:08.986Z,76.07
2023-04-16T07:10:11.300Z,75.67
2023-04-16T07:13:14.972Z,75.81
2023-04-16T07:16:18.157Z,75.49
2023-04-16T07:19:21.112Z,74.70
2023-04-16T07:22:23.435Z,75.12
2023-04-16T07:25:26.957Z,73.98
2023-04-16T07:28:29.270Z,72.97
2023-04-16T07:31:31.955Z,72.39
2023-04-16T07:34:34.262Z,71.80
2023-04-16T07:37:37.047Z,70.89
2023-04-16T07:40:39.478Z,70.89
2023-04-16T07:43:42.033Z,70.63
2023-04-16T07:46:47.478Z,70.52
2023-04-16T07:49:51.076Z,70.64
2023-04-16T07:52:53.749Z,70.28
2023-04-16T07:55:56.483Z,69.53
2023-04-16T07:59:07.944Z,69.75
2023-04-16T08:02:17.671Z,68.80
2023-04-16T08:05:20.451Z,69.00
2023-04-16T08:08:22.830Z,69.20
2023-04-16T08:11:25.771Z,68.90
2023-04-16T08:14:28.351Z,69.53
2023-04-16T08:17:31.038Z,68.87
2023-04-16T08:20:33.356Z,68.95
2023-04-16T08:23:36.007Z,68.02
2023-04-16T08:26:38.361Z,68.28
2023-04-16T08:29:40.920Z,67.07
2023-04-16T08:32:43.657Z,65.33
2023-04-16T08:35:46.376Z,65.38
2023-04-16T08:38:48.702Z,65.51
2023-04-16T08:41:53.956Z,65.50
2023-04-16T08:45:08.842Z,64.54
2023-04-16T08:48:12.239Z,64.35
2023-04-16T08:51:16.024Z,64.13
2023-04-16T08:54:26.828Z,63.20
2023-04-16T08:57:33.719Z,62.62
2023-04-16T09:00:37.952Z,63.01
2023-04-16T09:03:41.747Z,62.90
2023-04-16T09:06:45.430Z,62.25
2023-04-16T09:09:49.710Z,61.68
2023-04-16T09:12:52.340Z,61.57
2023-04-16T09:15:57.100Z,61.05
2023-04-16T09:19:00.297Z,58.94
2023-04-16T09:22:02.701Z,59.53
2023-04-16T09:25:05.846Z,59.75
2023-04-16T09:28:09.029Z,59.84
2023-04-16T09:31:18.009Z,60.25
2023-04-16T09:34:21.017Z,60.19
2023-04-16T09:37:24.726Z,60.94
2023-04-16T09:40:30.329Z,61.31
2023-04-16T09:43:33.066Z,61.58
2023-04-16T09:46:37.686Z,61.91
2023-04-16T09:49:44.089Z,61.97
2023-04-16T09:52:51.054Z,62.23
2023-04-16T09:56:01.243Z,63.27
2023-04-16T09:59:03.557Z,62.66
2023-04-16T10:02:14.813Z,62.99
2023-04-16T10:05:20.302Z,62.32
2023-04-16T10:08:24.066Z,62.65
2023-04-16T10:11:27.205Z,62.56
2023-04-16T10:14:29.692Z,61.64
2023-04-16T10:17:33.444Z,61.38
2023-04-16T10:20:37.096Z,59.51
2023-04-16T10:23:40.953Z,58.48
2023-04-16T10:26:44.420Z,57.38
2023-04-16T10:29:49.794Z,56.58
2023-04-16T10:32:52.696Z,55.08
2023-04-16T10:36:27.976Z,53.52
2023-04-16T10:39:31.232Z,51.59
2023-04-16T10:42:34.568Z,51.25
2023-04-16T10:45:40.190Z,50.40
2023-04-16T10:48:49.629Z,49.66
2023-04-16T10:51:54.097Z,48.82
2023-04-16T10:54:59.297Z,48.44
2023-04-16T10:58:01.536Z,47.18
2023-04-16T11:01:12.433Z,47.14
2023-04-16T11:04:38.828Z,46.19
2023-04-16T11:07:49.414Z,45.17
2023-04-16T11:10:52.412Z,45.21
2023-04-16T11:13:56.447Z,45.22
2023-04-16T11:16:58.954Z,44.00
2023-04-16T11:20:01.856Z,43.28
2023-04-16T11:23:10.969Z,43.60
2023-04-16T11:26:30.518Z,43.09
2023-04-16T11:29:32.913Z,41.75
2023-04-16T11:32:37.533Z,42.52
2023-04-16T11:35:41.462Z,42.98
2023-04-16T11:38:44.520Z,42.90
2023-04-16T11:41:52.368Z,43.56
2023-04-16T11:44:56.756Z,44.13
2023-04-16T11:47:59.113Z,44.50
2023-04-16T11:51:01.799Z,45.00
2023-04-16T11:54:04.344Z,45.47
2023-04-16T11:57:07.024Z,43.65
2023-04-16T12:00:15.810Z,42.75
2023-04-16T12:03:18.846Z,41.65
2023-04-16T12:06:22.713Z,41.54
2023-04-16T12:09:27.372Z,42.26
2023-04-16T12:12:32.409Z,42.40
2023-04-16T12:16:16.601Z,43.33
2023-04-16T12:19:19.164Z,42.76
2023-04-16T12:22:36.814Z,43.58
2023-04-16T12:25:43.065Z,42.37
2023-04-16T12:28:45.682Z,42.22
2023-04-16T12:31:52.433Z,42.13
2023-04-16T12:34:55.131Z,48.04
2023-04-16T12:37:57.686Z,42.96
2023-04-16T12:41:02.384Z,45.24
2023-04-16T12:44:11.928Z,43.62
2023-04-16T12:47:14.741Z,42.95
2023-04-16T12:50:17.320Z,44.00
2023-04-16T12:53:19.986Z,43.96
2023-04-16T12:56:22.441Z,44.76
2023-04-16T12:59:25.142Z,44.08
2023-04-16T13:02:27.877Z,43.84
2023-04-16T13:05:30.872Z,43.76
2023-04-16T13:08:33.499Z,42.95
2023-04-16T13:11:36.406Z,42.44
2023-04-16T13:14:39.560Z,42.25
2023-04-16T13:17:42.214Z,42.55
2023-04-16T13:20:44.648Z,41.87
2023-04-16T13:23:47.314Z,41.74
2023-04-16T13:26:50.686Z,41.75
2023-04-16T13:29:53.361Z,41.87
2023-04-16T13:32:56.724Z,43.17
2023-04-16T13:35:59.507Z,44.27
2023-04-16T13:39:04.635Z,46.38
2023-04-16T13:42:10.829Z,43.70
2023-04-16T13:45:13.225Z,44.75
2023-04-16T13:48:16.116Z,44.71
2023-04-16T13:51:18.419Z,44.74
2023-04-16T13:54:21.021Z,46.61
2023-04-16T13:57:23.426Z,45.62
2023-04-16T14:00:27.338Z,44.82
2023-04-16T14:03:30.095Z,46.02
2023-04-16T14:06:33.245Z,45.65
2023-04-16T14:09:35.960Z,45.36
2023-04-16T14:12:39.320Z,45.42
2023-04-16T14:15:42.059Z,47.17
2023-04-16T14:18:44.649Z,46.23
2023-04-16T14:21:47.280Z,46.90
2023-04-16T14:24:49.591Z,45.79
2023-04-16T14:27:54.242Z,47.01
2023-04-16T14:30:56.555Z,46.13
2023-04-16T14:33:59.707Z,46.54
2023-04-16T14:37:02.212Z,46.29
2023-04-16T14:40:08.640Z,46.16
2023-04-16T14:43:10.984Z,46.23
2023-04-16T14:46:17.427Z,45.93
2023-04-16T14:49:19.910Z,46.11
2023-04-16T14:52:22.620Z,45.69
2023-04-16T14:55:24.967Z,46.74
2023-04-16T14:58:27.662Z,45.35
2023-04-16T15:01:30.120Z,46.22
2023-04-16T15:04:32.950Z,45.75
2023-04-16T15:07:35.444Z,48.43
2023-04-16T15:10:38.124Z,46.01
2023-04-16T15:13:40.413Z,45.32
2023-04-16T15:16:43.122Z,44.91
2023-04-16T15:19:45.516Z,45.10
2023-04-16T15:22:48.160Z,43.97
2023-04-16T15:25:50.616Z,44.60
2023-04-16T15:28:53.439Z,43.70
2023-04-16T15:31:55.999Z,43.57
2023-04-16T15:35:00.126Z,44.24
2023-04-16T15:38:02.361Z,44.36
2023-04-16T15:41:04.976Z,43.73
2023-04-16T15:44:07.337Z,43.36
2023-04-16T15:47:09.972Z,43.73
2023-04-16T15:50:12.531Z,43.10
2023-04-16T15:53:15.286Z,43.18
2023-04-16T15:56:17.782Z,43.23
2023-04-16T15:59:20.618Z,43.25
2023-04-16T16:02:23.253Z,43.56
2023-04-16T16:05:26.294Z,43.53
2023-04-16T16:08:29.588Z,43.47
2023-04-16T16:11:32.670Z,44.11
2023-04-16T16:14:35.141Z,44.68
2023-04-16T16:17:38.061Z,44.72
2023-04-16T16:20:40.677Z,49.72
2023-04-16T16:23:43.328Z,45.55
2023-04-16T16:26:45.670Z,45.71
2023-04-16T16:29:48.389Z,45.91
2023-04-16T16:32:51.226Z,46.66
2023-04-16T16:35:53.886Z,47.71
2023-04-16T16:38:56.954Z,46.42
2023-04-16T16:41:59.596Z,46.78
2023-04-16T16:45:06.207Z,47.26
2023-04-16T16:48:09.162Z,47.48
2023-04-16T16:51:11.692Z,47.50
2023-04-16T16:54:14.744Z,47.84
2023-04-16T16:57:19.328Z,47.88
2023-04-16T17:00:22.261Z,48.20
2023-04-16T17:03:24.740Z,47.96
2023-04-16T17:06:27.778Z,47.99
2023-04-16T17:09:30.147Z,48.16
2023-04-16T17:12:32.890Z,48.23
2023-04-16T17:15:35.226Z,50.94
2023-04-16T17:18:37.821Z,49.31
2023-04-16T17:21:40.200Z,49.75
2023-04-16T17:24:42.991Z,49.76
2023-04-16T17:27:45.373Z,49.30
2023-04-16T17:30:51.703Z,49.13
2023-04-16T17:33:54.080Z,50.39
2023-04-16T17:36:56.701Z,49.87
2023-04-16T17:39:58.998Z,49.98
2023-04-16T17:43:01.630Z,50.02
2023-04-16T17:46:04.063Z,50.53
2023-04-16T17:49:06.730Z,51.69
2023-04-16T17:52:09.109Z,51.17
2023-04-16T17:55:11.938Z,51.10
2023-04-16T17:58:14.227Z,51.56
2023-04-16T18:01:16.882Z,51.54
2023-04-16T18:04:19.835Z,51.61
2023-04-16T18:07:22.292Z,52.10
2023-04-16T18:10:24.989Z,52.07
2023-04-16T18:13:27.340Z,53.12
2023-04-16T18:16:30.017Z,53.30
2023-04-16T18:19:32.380Z,53.41
2023-04-16T18:22:34.980Z,53.93
2023-04-16T18:25:37.507Z,54.51
2023-04-16T18:28:41.095Z,54.54
2023-04-16T18:31:44.104Z,54.94
2023-04-16T18:34:46.899Z,55.27
2023-04-16T18:37:49.303Z,55.61
2023-04-16T18:40:52.171Z,56.34
2023-04-16T18:43:54.558Z,56.15
2023-04-16T18:46:57.240Z,56.64
2023-04-16T18:49:59.566Z,57.07
2023-04-16T18:53:02.424Z,56.86
2023-04-16T18:56:05.300Z,57.54
2023-04-16T18:59:08.109Z,57.14
2023-04-16T19:02:10.727Z,58.05
2023-04-16T19:05:13.521Z,58.22
2023-04-16T19:08:16.548Z,59.26
2023-04-16T19:11:19.225Z,57.24
2023-04-16T19:14:21.696Z,57.31
2023-04-16T19:17:24.324Z,56.93
2023-04-16T19:20:27.079Z,57.92
2023-04-16T19:23:29.837Z,57.19
2023-04-16T19:26:32.152Z,57.18
2023-04-16T19:29:35.547Z,56.82
2023-04-16T19:32:37.926Z,56.97
2023-04-16T19:35:42.757Z,57.18
2023-04-16T19:38:45.225Z,57.70
2023-04-16T19:41:47.886Z,57.97
2023-04-16T19:44:50.468Z,57.63
2023-04-16T19:47:53.662Z,58.16
2023-04-16T19:50:56.058Z,57.59
2023-04-16T19:53:59.106Z,57.60
2023-04-16T19:57:01.589Z,57.43
2023-04-16T20:00:08.430Z,57.75
2023-04-16T20:03:10.878Z,58.89
2023-04-16T20:06:13.587Z,58.16
2023-04-16T20:09:18.610Z,57.67
2023-04-16T20:12:21.414Z,58.04
2023-04-16T20:15:23.765Z,57.90
2023-04-16T20:18:28.886Z,57.36
2023-04-16T20:21:34.281Z,62.23
2023-04-16T20:24:38.542Z,61.65
2023-04-16T20:27:41.106Z,60.54
2023-04-16T20:30:43.870Z,58.69
2023-04-16T20:33:46.395Z,59.30
2023-04-16T20:36:49.109Z,58.41
2023-04-16T20:39:54.279Z,57.97
2023-04-16T20:42:59.990Z,59.99
2023-04-16T20:46:02.994Z,57.41
2023-04-16T20:49:08.329Z,60.06
2023-04-16T20:52:11.117Z,58.23
2023-04-16T20:55:13.824Z,60.64
2023-04-16T20:58:16.227Z,58.91
2023-04-16T21:01:20.732Z,58.21
2023-04-16T21:04:23.349Z,59.15
2023-04-16T21:07:26.316Z,57.92
2023-04-16T21:10:28.649Z,58.08
2023-04-16T21:13:31.303Z,57.63
2023-04-16T21:16:33.654Z,57.83
2023-04-16T21:19:36.389Z,58.39
2023-04-16T21:22:38.848Z,58.30
2023-04-16T21:25:41.565Z,57.57
2023-04-16T21:28:44.064Z,59.83
2023-04-16T21:31:46.913Z,57.96
2023-04-16T21:34:49.292Z,57.51
2023-04-16T21:37:51.920Z,58.03
2023-04-16T21:40:55.614Z,57.73
2023-04-16T21:43:58.120Z,58.01
2023-04-16T21:47:00.585Z,57.42
2023-04-16T21:50:03.694Z,58.04
2023-04-16T21:53:06.758Z,58.23
2023-04-16T21:56:09.453Z,59.58
2023-04-16T21:59:11.949Z,58.03
2023-04-16T22:02:15.041Z,58.15
2023-04-16T22:05:18.016Z,58.91
2023-04-16T22:08:24.898Z,58.04
2023-04-16T22:11:27.878Z,58.01
2023-04-16T22:14:31.914Z,58.11
2023-04-16T22:17:34.816Z,59.74
2023-04-16T22:20:39.153Z,57.99
2023-04-16T22:23:42.128Z,58.96
2023-04-16T22:26:44.504Z,57.63
2023-04-16T22:29:47.170Z,57.64
2023-04-16T22:32:49.513Z,57.25
2023-04-16T22:35:52.139Z,57.66
2023-04-16T22:38:54.514Z,58.17
2023-04-16T22:41:57.160Z,58.78
2023-04-16T22:44:59.440Z,58.94
2023-04-16T22:48:02.639Z,58.59
2023-04-16T22:51:07.106Z,57.26
2023-04-16T22:54:13.673Z,57.19
2023-04-16T22:57:17.516Z,57.14
2023-04-16T23:00:21.069Z,58.01
2023-04-16T23:03:23.634Z,57.68
2023-04-16T23:06:27.192Z,58.01
2023-04-16T23:09:29.543Z,57.20
2023-04-16T23:12:32.174Z,57.69
2023-04-16T23:15:34.489Z,58.65
2023-04-16T23:18:37.911Z,58.67
2023-04-16T23:21:40.820Z,57.58
2023-04-16T23:24:43.404Z,57.28
2023-04-16T23:27:45.707Z,58.55
2023-04-16T23:30:51.674Z,59.19
2023-04-16T23:33:54.337Z,58.41
2023-04-16T23:36:56.995Z,57.45
2023-04-16T23:39:59.279Z,57.18
2023-04-16T23:43:01.839Z,58.49
2023-04-16T23:46:04.271Z,58.24
2023-04-16T23:49:07.008Z,58.35
2023-04-16T23:52:09.404Z,58.18
2023-04-16T23:55:12.095Z,58.70
2023-04-16T23:58:14.594Z,57.73
